sensor_id;sensor_type;location;lat;lon;timestamp;temperature;humidity
2653;DHT22;1336;48.692;9.144;2022-09-29T05:00:44;10.20;97.20
2653;DHT22;1336;48.692;9.144;2022-09-29T05:01:36;10.20;97.20
2653;DHT22;1336;48.692;9.144;2022-09-29T05:02:27;10.20;97.20
2653;DHT22;1336;48.692;9.144;2022-09-29T05:03:18;10.20;97.20
2653;DHT22;1336;48.692;9.144;2022-09-29T05:04:09;10.20;97.20
2653;DHT22;1336;48.692;9.144;2022-09-29T05:05:03;10.20;97.20
2653;DHT22;1336;48.692;9.144;2022-09-29T05:05:55;10.20;97.20
2653;DHT22;1336;48.692;9.144;2022-09-29T05:06:47;10.20;97.20
2653;DHT22;1336;48.692;9.144;2022-09-29T05:07:39;10.20;97.20
2653;DHT22;1336;48.692;9.144;2022-09-29T05:08:31;10.30;97.20
2653;DHT22;1336;48.692;9.144;2022-09-29T05:09:21;10.30;97.20
2653;DHT22;1336;48.692;9.144;2022-09-29T05:10:13;10.30;97.20
2653;DHT22;1336;48.692;9.144;2022-09-29T05:11:05;10.30;97.20
2653;DHT22;1336;48.692;9.144;2022-09-29T05:11:56;10.30;97.20
2653;DHT22;1336;48.692;9.144;2022-09-29T05:12:48;10.30;97.20
2653;DHT22;1336;48.692;9.144;2022-09-29T05:13:40;10.30;97.20
2653;DHT22;1336;48.692;9.144;2022-09-29T05:14:31;10.30;97.20
2653;DHT22;1336;48.692;9.144;2022-09-29T05:15:22;10.30;97.20
2653;DHT22;1336;48.692;9.144;2022-09-29T05:16:15;10.30;97.20
2653;DHT22;1336;48.692;9.144;2022-09-29T05:17:06;10.30;97.20
2653;DHT22;1336;48.692;9.144;2022-09-29T05:18:00;10.30;97.20
2653;DHT22;1336;48.692;9.144;2022-09-29T05:18:52;10.20;97.20
2653;DHT22;1336;48.692;9.144;2022-09-29T05:19:43;10.20;97.20
2653;DHT22;1336;48.692;9.144;2022-09-29T05:20:34;10.20;97.20
2653;DHT22;1336;48.692;9.144;2022-09-29T05:21:25;10.20;97.20
2653;DHT22;1336;48.692;9.144;2022-09-29T05:22:17;10.20;97.20
2653;DHT22;1336;48.692;9.144;2022-09-29T05:23:13;10.20;97.20
2653;DHT22;1336;48.692;9.144;2022-09-29T05:24:05;10.20;97.20
2653;DHT22;1336;48.692;9.144;2022-09-29T05:24:56;10.20;97.20
2653;DHT22;1336;48.692;9.144;2022-09-29T05:25:48;10.20;97.20
2653;DHT22;1336;48.692;9.144;2022-09-29T05:26:39;10.20;97.20
2653;DHT22;1336;48.692;9.144;2022-09-29T05:27:31;10.20;97.20
2653;DHT22;1336;48.692;9.144;2022-09-29T05:28:21;10.20;97.20
2653;DHT22;1336;48.692;9.144;2022-09-29T05:29:13;10.20;97.20
2653;DHT22;1336;48.692;9.144;2022-09-29T05:30:05;10.20;97.20
2653;DHT22;1336;48.692;9.144;2022-09-29T05:31:00;10.20;97.20
2653;DHT22;1336;48.692;9.144;2022-09-29T05:31:52;10.20;97.20
2653;DHT22;1336;48.692;9.144;2022-09-29T05:32:44;10.20;97.20
2653;DHT22;1336;48.692;9.144;2022-09-29T05:33:36;10.20;97.20
2653;DHT22;1336;48.692;9.144;2022-09-29T05:34:28;10.20;97.20
2653;DHT22;1336;48.692;9.144;2022-09-29T05:35:19;10.20;97.20
2653;DHT22;1336;48.692;9.144;2022-09-29T05:36:11;10.20;97.20
2653;DHT22;1336;48.692;9.144;2022-09-29T05:37:02;10.20;97.20
2653;DHT22;1336;48.692;9.144;2022-09-29T05:37:54;10.20;97.20
2653;DHT22;1336;48.692;9.144;2022-09-29T05:38:45;10.20;97.20
2653;DHT22;1336;48.692;9.144;2022-09-29T05:39:36;10.20;97.20
2653;DHT22;1336;48.692;9.144;2022-09-29T05:40:27;10.20;97.20
2653;DHT22;1336;48.692;9.144;2022-09-29T05:41:19;10.20;97.20
2653;DHT22;1336;48.692;9.144;2022-09-29T05:42:12;10.30;97.20
2653;DHT22;1336;48.692;9.144;2022-09-29T05:43:04;10.30;97.20
2653;DHT22;1336;48.692;9.144;2022-09-29T05:43:56;10.30;97.20
2653;DHT22;1336;48.692;9.144;2022-09-29T05:44:48;10.30;97.20
2653;DHT22;1336;48.692;9.144;2022-09-29T05:45:38;10.30;97.20
2653;DHT22;1336;48.692;9.144;2022-09-29T05:46:30;10.30;97.20
2653;DHT22;1336;48.692;9.144;2022-09-29T05:47:22;10.20;97.20
2653;DHT22;1336;48.692;9.144;2022-09-29T05:48:14;10.20;97.20
2653;DHT22;1336;48.692;9.144;2022-09-29T05:49:05;10.20;97.20
2653;DHT22;1336;48.692;9.144;2022-09-29T05:49:56;10.20;97.20
2653;DHT22;1336;48.692;9.144;2022-09-29T05:50:47;10.20;97.20
2653;DHT22;1336;48.692;9.144;2022-09-29T05:51:39;10.20;97.20
2653;DHT22;1336;48.692;9.144;2022-09-29T05:52:30;10.20;97.20
2653;DHT22;1336;48.692;9.144;2022-09-29T05:53:21;10.20;97.20
2653;DHT22;1336;48.692;9.144;2022-09-29T05:54:12;10.20;97.20
2653;DHT22;1336;48.692;9.144;2022-09-29T05:55:05;10.20;97.20
2653;DHT22;1336;48.692;9.144;2022-09-29T05:55:58;10.20;97.20
2653;DHT22;1336;48.692;9.144;2022-09-29T05:56:50;10.20;97.20
2653;DHT22;1336;48.692;9.144;2022-09-29T05:57:40;10.20;97.20
2653;DHT22;1336;48.692;9.144;2022-09-29T05:58:32;10.20;97.20
2653;DHT22;1336;48.692;9.144;2022-09-29T05:59:23;10.20;97.20
2653;DHT22;1336;48.692;9.144;2022-09-29T06:00:15;10.20;97.20
2653;DHT22;1336;48.692;9.144;2022-09-29T06:01:07;10.20;97.20
2653;DHT22;1336;48.692;9.144;2022-09-29T06:01:59;10.20;97.20
2653;DHT22;1336;48.692;9.144;2022-09-29T06:02:51;10.20;97.20
2653;DHT22;1336;48.692;9.144;2022-09-29T06:03:43;10.20;97.20
2653;DHT22;1336;48.692;9.144;2022-09-29T06:04:33;10.20;97.20
2653;DHT22;1336;48.692;9.144;2022-09-29T06:05:26;10.20;97.20
2653;DHT22;1336;48.692;9.144;2022-09-29T06:06:19;10.20;97.20
2653;DHT22;1336;48.692;9.144;2022-09-29T06:07:11;10.20;97.20
2653;DHT22;1336;48.692;9.144;2022-09-29T06:08:01;10.20;97.20
2653;DHT22;1336;48.692;9.144;2022-09-29T06:08:55;10.20;97.20
2653;DHT22;1336;48.692;9.144;2022-09-29T06:09:46;10.20;97.20
2653;DHT22;1336;48.692;9.144;2022-09-29T06:10:38;10.20;97.20
2653;DHT22;1336;48.692;9.144;2022-09-29T06:11:30;10.20;97.20
2653;DHT22;1336;48.692;9.144;2022-09-29T06:12:22;10.20;97.20
2653;DHT22;1336;48.692;9.144;2022-09-29T06:13:13;10.20;97.20
2653;DHT22;1336;48.692;9.144;2022-09-29T06:14:04;10.20;97.20
2653;DHT22;1336;48.692;9.144;2022-09-29T06:14:55;10.20;97.20
2653;DHT22;1336;48.692;9.144;2022-09-29T06:15:47;10.20;97.20
2653;DHT22;1336;48.692;9.144;2022-09-29T06:16:37;10.20;97.20
2653;DHT22;1336;48.692;9.144;2022-09-29T06:17:31;10.20;97.20
2653;DHT22;1336;48.692;9.144;2022-09-29T06:18:23;10.20;97.20
2653;DHT22;1336;48.692;9.144;2022-09-29T06:19:14;10.20;97.20
2653;DHT22;1336;48.692;9.144;2022-09-29T06:20:07;10.30;97.20
2653;DHT22;1336;48.692;9.144;2022-09-29T06:21:02;10.30;97.20
2653;DHT22;1336;48.692;9.144;2022-09-29T06:21:54;10.30;97.20
2653;DHT22;1336;48.692;9.144;2022-09-29T06:22:45;10.30;97.20
2653;DHT22;1336;48.692;9.144;2022-09-29T06:23:37;10.30;97.20
2653;DHT22;1336;48.692;9.144;2022-09-29T06:24:28;10.30;97.20
2653;DHT22;1336;48.692;9.144;2022-09-29T06:25:20;10.30;97.20
2653;DHT22;1336;48.692;9.144;2022-09-29T06:26:13;10.30;97.20
2653;DHT22;1336;48.692;9.144;2022-09-29T06:27:04;10.40;97.20
2653;DHT22;1336;48.692;9.144;2022-09-29T06:27:55;10.40;97.20
2653;DHT22;1336;48.692;9.144;2022-09-29T06:28:47;10.40;97.20
2653;DHT22;1336;48.692;9.144;2022-09-29T06:29:38;10.40;97.20
2653;DHT22;1336;48.692;9.144;2022-09-29T06:30:29;10.40;97.20
2653;DHT22;1336;48.692;9.144;2022-09-29T06:31:22;10.40;97.20
2653;DHT22;1336;48.692;9.144;2022-09-29T06:32:14;10.50;97.20
2653;DHT22;1336;48.692;9.144;2022-09-29T06:33:05;10.50;97.20
2653;DHT22;1336;48.692;9.144;2022-09-29T06:34:00;10.50;97.20
2653;DHT22;1336;48.692;9.144;2022-09-29T06:34:51;10.50;97.20
2653;DHT22;1336;48.692;9.144;2022-09-29T06:36:03;10.50;97.20
2653;DHT22;1336;48.692;9.144;2022-09-29T06:37:13;10.50;97.20
2653;DHT22;1336;48.692;9.144;2022-09-29T06:38:22;10.50;97.20
2653;DHT22;1336;48.692;9.144;2022-09-29T06:39:15;10.50;97.20
2653;DHT22;1336;48.692;9.144;2022-09-29T06:40:07;10.50;97.20
2653;DHT22;1336;48.692;9.144;2022-09-29T06:40:59;10.50;97.20
2653;DHT22;1336;48.692;9.144;2022-09-29T06:41:50;10.50;97.20
2653;DHT22;1336;48.692;9.144;2022-09-29T06:42:43;10.50;97.20
2653;DHT22;1336;48.692;9.144;2022-09-29T06:43:35;10.50;97.20
2653;DHT22;1336;48.692;9.144;2022-09-29T06:44:27;10.60;97.20
2653;DHT22;1336;48.692;9.144;2022-09-29T06:45:19;10.60;97.20
2653;DHT22;1336;48.692;9.144;2022-09-29T06:46:11;10.60;97.20
2653;DHT22;1336;48.692;9.144;2022-09-29T06:47:01;10.60;97.20
2653;DHT22;1336;48.692;9.144;2022-09-29T06:47:57;10.60;97.20
2653;DHT22;1336;48.692;9.144;2022-09-29T06:48:48;10.60;97.20
2653;DHT22;1336;48.692;9.144;2022-09-29T06:49:41;10.60;97.20
2653;DHT22;1336;48.692;9.144;2022-09-29T06:50:31;10.70;97.20
2653;DHT22;1336;48.692;9.144;2022-09-29T06:51:25;10.70;97.20
2653;DHT22;1336;48.692;9.144;2022-09-29T06:52:16;10.70;97.20
2653;DHT22;1336;48.692;9.144;2022-09-29T06:53:08;10.70;97.20
2653;DHT22;1336;48.692;9.144;2022-09-29T06:53:59;10.70;97.20
2653;DHT22;1336;48.692;9.144;2022-09-29T06:54:51;10.70;97.20
2653;DHT22;1336;48.692;9.144;2022-09-29T06:55:41;10.70;97.20
2653;DHT22;1336;48.692;9.144;2022-09-29T06:56:33;10.80;97.20
2653;DHT22;1336;48.692;9.144;2022-09-29T06:57:24;10.80;97.20
2653;DHT22;1336;48.692;9.144;2022-09-29T06:58:16;10.80;97.20
2653;DHT22;1336;48.692;9.144;2022-09-29T06:59:07;10.80;97.20
2653;DHT22;1336;48.692;9.144;2022-09-29T06:59:58;10.80;97.20
2653;DHT22;1336;48.692;9.144;2022-09-29T07:00:49;10.80;97.20
2653;DHT22;1336;48.692;9.144;2022-09-29T07:01:41;10.80;97.20
2653;DHT22;1336;48.692;9.144;2022-09-29T07:02:32;10.80;97.20
2653;DHT22;1336;48.692;9.144;2022-09-29T07:03:24;10.90;97.20
2653;DHT22;1336;48.692;9.144;2022-09-29T07:04:14;10.90;97.20
2653;DHT22;1336;48.692;9.144;2022-09-29T07:05:08;10.90;97.20
2653;DHT22;1336;48.692;9.144;2022-09-29T07:06:01;11.00;97.20
2653;DHT22;1336;48.692;9.144;2022-09-29T07:06:53;11.00;97.20
2653;DHT22;1336;48.692;9.144;2022-09-29T07:07:43;11.00;97.20
2653;DHT22;1336;48.692;9.144;2022-09-29T07:08:38;11.00;97.20
2653;DHT22;1336;48.692;9.144;2022-09-29T07:09:29;11.00;97.20
2653;DHT22;1336;48.692;9.144;2022-09-29T07:10:21;11.00;97.20
2653;DHT22;1336;48.692;9.144;2022-09-29T07:11:12;11.00;97.20
2653;DHT22;1336;48.692;9.144;2022-09-29T07:12:04;11.00;97.20
2653;DHT22;1336;48.692;9.144;2022-09-29T07:12:55;11.00;97.20
2653;DHT22;1336;48.692;9.144;2022-09-29T07:13:49;11.10;97.20
2653;DHT22;1336;48.692;9.144;2022-09-29T07:14:39;11.10;97.20
2653;DHT22;1336;48.692;9.144;2022-09-29T07:15:31;11.10;97.20
2653;DHT22;1336;48.692;9.144;2022-09-29T07:16:22;11.10;97.20
2653;DHT22;1336;48.692;9.144;2022-09-29T07:17:14;11.10;97.20
2653;DHT22;1336;48.692;9.144;2022-09-29T07:18:04;11.10;97.20
2653;DHT22;1336;48.692;9.144;2022-09-29T07:18:56;11.10;97.20
2653;DHT22;1336;48.692;9.144;2022-09-29T07:19:47;11.10;97.20
2653;DHT22;1336;48.692;9.144;2022-09-29T07:20:40;11.10;97.20
2653;DHT22;1336;48.692;9.144;2022-09-29T07:21:31;11.10;97.20
2653;DHT22;1336;48.692;9.144;2022-09-29T07:22:22;11.10;97.20
2653;DHT22;1336;48.692;9.144;2022-09-29T07:23:13;11.10;97.20
2653;DHT22;1336;48.692;9.144;2022-09-29T07:24:05;11.10;97.20
2653;DHT22;1336;48.692;9.144;2022-09-29T07:24:56;11.10;97.20
2653;DHT22;1336;48.692;9.144;2022-09-29T07:25:47;11.10;97.20
2653;DHT22;1336;48.692;9.144;2022-09-29T07:26:38;11.10;97.20
2653;DHT22;1336;48.692;9.144;2022-09-29T07:27:30;11.10;97.20
2653;DHT22;1336;48.692;9.144;2022-09-29T07:28:23;11.10;97.20
2653;DHT22;1336;48.692;9.144;2022-09-29T07:29:15;11.10;97.20
2653;DHT22;1336;48.692;9.144;2022-09-29T07:30:07;11.10;97.20
2653;DHT22;1336;48.692;9.144;2022-09-29T07:31:00;11.10;97.20
2653;DHT22;1336;48.692;9.144;2022-09-29T07:31:51;11.20;97.20
2653;DHT22;1336;48.692;9.144;2022-09-29T07:32:44;11.20;97.20
2653;DHT22;1336;48.692;9.144;2022-09-29T07:33:36;11.20;97.20
2653;DHT22;1336;48.692;9.144;2022-09-29T07:34:27;11.20;97.20
2653;DHT22;1336;48.692;9.144;2022-09-29T07:35:19;11.20;97.20
2653;DHT22;1336;48.692;9.144;2022-09-29T07:36:11;11.20;97.20
2653;DHT22;1336;48.692;9.144;2022-09-29T07:37:03;11.20;97.20
2653;DHT22;1336;48.692;9.144;2022-09-29T07:37:54;11.20;97.20
2653;DHT22;1336;48.692;9.144;2022-09-29T07:38:47;11.20;97.20
2653;DHT22;1336;48.692;9.144;2022-09-29T07:39:38;11.20;97.20
2653;DHT22;1336;48.692;9.144;2022-09-29T07:40:30;11.20;97.20
2653;DHT22;1336;48.692;9.144;2022-09-29T07:41:21;11.30;97.20
2653;DHT22;1336;48.692;9.144;2022-09-29T07:42:13;11.30;97.20
2653;DHT22;1336;48.692;9.144;2022-09-29T07:43:04;11.30;97.20
2653;DHT22;1336;48.692;9.144;2022-09-29T07:43:56;11.40;97.20
2653;DHT22;1336;48.692;9.144;2022-09-29T07:44:48;11.40;97.20
2653;DHT22;1336;48.692;9.144;2022-09-29T07:45:45;11.40;97.20
2653;DHT22;1336;48.692;9.144;2022-09-29T07:46:37;11.40;97.20
2653;DHT22;1336;48.692;9.144;2022-09-29T07:47:27;11.40;97.20
2653;DHT22;1336;48.692;9.144;2022-09-29T07:48:19;11.40;97.20
2653;DHT22;1336;48.692;9.144;2022-09-29T07:49:10;11.50;97.20
2653;DHT22;1336;48.692;9.144;2022-09-29T07:50:02;11.50;97.20
2653;DHT22;1336;48.692;9.144;2022-09-29T07:50:59;11.50;97.20
2653;DHT22;1336;48.692;9.144;2022-09-29T07:51:52;11.50;97.20
2653;DHT22;1336;48.692;9.144;2022-09-29T07:52:43;11.60;97.20
2653;DHT22;1336;48.692;9.144;2022-09-29T07:53:36;11.60;97.20
2653;DHT22;1336;48.692;9.144;2022-09-29T07:54:26;11.60;97.20
2653;DHT22;1336;48.692;9.144;2022-09-29T07:55:18;11.60;97.20
2653;DHT22;1336;48.692;9.144;2022-09-29T07:56:12;11.60;97.20
2653;DHT22;1336;48.692;9.144;2022-09-29T07:57:05;11.70;97.20
2653;DHT22;1336;48.692;9.144;2022-09-29T07:57:55;11.70;97.20
2653;DHT22;1336;48.692;9.144;2022-09-29T07:58:49;11.70;97.20
2653;DHT22;1336;48.692;9.144;2022-09-29T07:59:39;11.70;97.20
2653;DHT22;1336;48.692;9.144;2022-09-29T08:00:31;11.70;97.20
2653;DHT22;1336;48.692;9.144;2022-09-29T08:01:22;11.80;97.20
2653;DHT22;1336;48.692;9.144;2022-09-29T08:02:14;11.80;97.20
2653;DHT22;1336;48.692;9.144;2022-09-29T08:03:05;11.80;97.20
2653;DHT22;1336;48.692;9.144;2022-09-29T08:03:57;11.80;97.20
2653;DHT22;1336;48.692;9.144;2022-09-29T08:04:48;11.80;97.20
2653;DHT22;1336;48.692;9.144;2022-09-29T08:05:40;11.80;97.20
2653;DHT22;1336;48.692;9.144;2022-09-29T08:06:31;11.80;97.20
2653;DHT22;1336;48.692;9.144;2022-09-29T08:07:24;11.80;97.20
2653;DHT22;1336;48.692;9.144;2022-09-29T08:08:15;11.80;97.20
2653;DHT22;1336;48.692;9.144;2022-09-29T08:09:06;11.90;97.20
2653;DHT22;1336;48.692;9.144;2022-09-29T08:09:57;11.90;97.20
2653;DHT22;1336;48.692;9.144;2022-09-29T08:10:49;11.90;97.20
2653;DHT22;1336;48.692;9.144;2022-09-29T08:11:41;11.90;97.20
2653;DHT22;1336;48.692;9.144;2022-09-29T08:12:33;11.90;97.20
2653;DHT22;1336;48.692;9.144;2022-09-29T08:13:24;11.90;97.20
2653;DHT22;1336;48.692;9.144;2022-09-29T08:14:15;11.90;97.20
2653;DHT22;1336;48.692;9.144;2022-09-29T08:15:07;11.90;97.20
2653;DHT22;1336;48.692;9.144;2022-09-29T08:15:59;12.00;97.20
2653;DHT22;1336;48.692;9.144;2022-09-29T08:16:50;12.00;97.20
2653;DHT22;1336;48.692;9.144;2022-09-29T08:17:42;12.00;97.20
2653;DHT22;1336;48.692;9.144;2022-09-29T08:18:34;12.00;97.20
2653;DHT22;1336;48.692;9.144;2022-09-29T08:19:26;12.00;97.20
2653;DHT22;1336;48.692;9.144;2022-09-29T08:20:18;12.00;97.20
2653;DHT22;1336;48.692;9.144;2022-09-29T08:21:10;12.00;97.20
2653;DHT22;1336;48.692;9.144;2022-09-29T08:22:01;12.00;97.20
2653;DHT22;1336;48.692;9.144;2022-09-29T08:22:54;12.00;97.20
2653;DHT22;1336;48.692;9.144;2022-09-29T08:23:47;12.00;97.20
2653;DHT22;1336;48.692;9.144;2022-09-29T08:24:38;12.00;97.20
2653;DHT22;1336;48.692;9.144;2022-09-29T08:25:30;12.00;97.20
2653;DHT22;1336;48.692;9.144;2022-09-29T08:26:22;12.00;97.20
2653;DHT22;1336;48.692;9.144;2022-09-29T08:27:13;12.00;97.20
2653;DHT22;1336;48.692;9.144;2022-09-29T08:28:04;12.00;97.20
2653;DHT22;1336;48.692;9.144;2022-09-29T08:28:55;12.10;97.20
2653;DHT22;1336;48.692;9.144;2022-09-29T08:29:47;12.10;97.20
2653;DHT22;1336;48.692;9.144;2022-09-29T08:30:38;12.10;97.20
2653;DHT22;1336;48.692;9.144;2022-09-29T08:31:29;12.10;97.20
2653;DHT22;1336;48.692;9.144;2022-09-29T08:32:20;12.10;97.20
2653;DHT22;1336;48.692;9.144;2022-09-29T08:33:12;12.10;97.20
2653;DHT22;1336;48.692;9.144;2022-09-29T08:34:05;12.20;97.20
2653;DHT22;1336;48.692;9.144;2022-09-29T08:34:57;12.20;97.20
2653;DHT22;1336;48.692;9.144;2022-09-29T08:35:54;12.20;97.20
2653;DHT22;1336;48.692;9.144;2022-09-29T08:36:46;12.20;97.20
2653;DHT22;1336;48.692;9.144;2022-09-29T08:37:37;12.20;97.20
2653;DHT22;1336;48.692;9.144;2022-09-29T08:38:31;12.30;97.20
2653;DHT22;1336;48.692;9.144;2022-09-29T08:39:22;12.30;97.20
2653;DHT22;1336;48.692;9.144;2022-09-29T08:40:14;12.30;97.20
2653;DHT22;1336;48.692;9.144;2022-09-29T08:41:05;12.30;97.20
2653;DHT22;1336;48.692;9.144;2022-09-29T08:42:03;12.30;97.20
2653;DHT22;1336;48.692;9.144;2022-09-29T08:42:59;12.30;97.20
2653;DHT22;1336;48.692;9.144;2022-09-29T08:43:57;12.40;97.20
2653;DHT22;1336;48.692;9.144;2022-09-29T08:44:52;12.40;97.20
2653;DHT22;1336;48.692;9.144;2022-09-29T08:45:55;12.40;97.20
2653;DHT22;1336;48.692;9.144;2022-09-29T08:46:50;12.40;97.20
2653;DHT22;1336;48.692;9.144;2022-09-29T08:47:45;12.50;97.20
2653;DHT22;1336;48.692;9.144;2022-09-29T08:48:41;12.50;97.20
2653;DHT22;1336;48.692;9.144;2022-09-29T08:49:36;12.50;97.20
2653;DHT22;1336;48.692;9.144;2022-09-29T08:50:32;12.50;97.20
2653;DHT22;1336;48.692;9.144;2022-09-29T08:51:29;12.50;97.20
2653;DHT22;1336;48.692;9.144;2022-09-29T08:52:24;12.50;97.20
2653;DHT22;1336;48.692;9.144;2022-09-29T08:53:19;12.60;97.20
2653;DHT22;1336;48.692;9.144;2022-09-29T08:54:21;12.60;97.20
2653;DHT22;1336;48.692;9.144;2022-09-29T08:55:22;12.60;97.20
2653;DHT22;1336;48.692;9.144;2022-09-29T08:56:17;12.70;97.20
2653;DHT22;1336;48.692;9.144;2022-09-29T08:57:11;12.70;97.20
2653;DHT22;1336;48.692;9.144;2022-09-29T08:58:10;12.70;97.20
2653;DHT22;1336;48.692;9.144;2022-09-29T08:59:01;12.70;97.20
2653;DHT22;1336;48.692;9.144;2022-09-29T08:59:55;12.80;97.20
2653;DHT22;1336;48.692;9.144;2022-09-29T09:00:57;12.80;97.20
2653;DHT22;1336;48.692;9.144;2022-09-29T09:02:00;12.80;97.20
2653;DHT22;1336;48.692;9.144;2022-09-29T09:03:11;12.80;97.20
2653;DHT22;1336;48.692;9.144;2022-09-29T09:04:40;12.90;97.20
2653;DHT22;1336;48.692;9.144;2022-09-29T09:05:51;12.90;97.20
2653;DHT22;1336;48.692;9.144;2022-09-29T09:06:55;12.90;97.20
2653;DHT22;1336;48.692;9.144;2022-09-29T09:07:53;13.00;97.20
2653;DHT22;1336;48.692;9.144;2022-09-29T09:08:56;13.00;97.20
2653;DHT22;1336;48.692;9.144;2022-09-29T09:10:02;13.10;97.20
2653;DHT22;1336;48.692;9.144;2022-09-29T09:11:00;13.10;97.20
2653;DHT22;1336;48.692;9.144;2022-09-29T09:12:19;13.20;97.20
2653;DHT22;1336;48.692;9.144;2022-09-29T09:13:28;13.20;97.20
2653;DHT22;1336;48.692;9.144;2022-09-29T09:14:33;13.20;97.20
2653;DHT22;1336;48.692;9.144;2022-09-29T09:15:36;13.30;97.20
2653;DHT22;1336;48.692;9.144;2022-09-29T09:16:34;13.30;97.20
2653;DHT22;1336;48.692;9.144;2022-09-29T09:17:43;13.30;97.20
2653;DHT22;1336;48.692;9.144;2022-09-29T09:18:50;13.30;97.20
2653;DHT22;1336;48.692;9.144;2022-09-29T09:20:03;13.30;97.20
2653;DHT22;1336;48.692;9.144;2022-09-29T09:21:05;13.30;97.20
2653;DHT22;1336;48.692;9.144;2022-09-29T09:22:06;13.30;97.20
2653;DHT22;1336;48.692;9.144;2022-09-29T09:23:09;13.30;97.20
2653;DHT22;1336;48.692;9.144;2022-09-29T09:24:15;13.40;97.20
2653;DHT22;1336;48.692;9.144;2022-09-29T09:25:18;13.40;97.20
2653;DHT22;1336;48.692;9.144;2022-09-29T09:26:11;13.40;97.20
2653;DHT22;1336;48.692;9.144;2022-09-29T09:27:04;13.40;97.20
2653;DHT22;1336;48.692;9.144;2022-09-29T09:28:02;13.40;97.20
2653;DHT22;1336;48.692;9.144;2022-09-29T09:28:56;13.40;97.20
2653;DHT22;1336;48.692;9.144;2022-09-29T09:30:00;13.40;97.20
2653;DHT22;1336;48.692;9.144;2022-09-29T09:30:55;13.40;97.20
2653;DHT22;1336;48.692;9.144;2022-09-29T09:31:50;13.40;97.20
2653;DHT22;1336;48.692;9.144;2022-09-29T09:32:48;13.40;97.20
2653;DHT22;1336;48.692;9.144;2022-09-29T09:33:46;13.40;97.20
2653;DHT22;1336;48.692;9.144;2022-09-29T09:34:43;13.30;97.20
2653;DHT22;1336;48.692;9.144;2022-09-29T09:35:41;13.30;97.20
2653;DHT22;1336;48.692;9.144;2022-09-29T09:36:35;13.30;97.20
2653;DHT22;1336;48.692;9.144;2022-09-29T09:37:32;13.30;97.20
2653;DHT22;1336;48.692;9.144;2022-09-29T09:38:26;13.30;97.20
2653;DHT22;1336;48.692;9.144;2022-09-29T09:39:21;13.20;97.20
2653;DHT22;1336;48.692;9.144;2022-09-29T09:40:20;13.20;97.20
2653;DHT22;1336;48.692;9.144;2022-09-29T09:41:16;13.20;97.20
2653;DHT22;1336;48.692;9.144;2022-09-29T09:42:12;13.20;97.20
2653;DHT22;1336;48.692;9.144;2022-09-29T09:43:10;13.20;97.20
2653;DHT22;1336;48.692;9.144;2022-09-29T09:44:06;13.20;97.20
2653;DHT22;1336;48.692;9.144;2022-09-29T09:45:04;13.20;97.20
2653;DHT22;1336;48.692;9.144;2022-09-29T09:45:59;13.20;97.20
2653;DHT22;1336;48.692;9.144;2022-09-29T09:46:56;13.20;97.20
2653;DHT22;1336;48.692;9.144;2022-09-29T09:47:52;13.20;97.20
2653;DHT22;1336;48.692;9.144;2022-09-29T09:48:51;13.20;97.20
2653;DHT22;1336;48.692;9.144;2022-09-29T09:49:49;13.20;97.20
2653;DHT22;1336;48.692;9.144;2022-09-29T09:50:42;13.30;97.20
2653;DHT22;1336;48.692;9.144;2022-09-29T09:51:43;13.20;97.20
2653;DHT22;1336;48.692;9.144;2022-09-29T09:52:39;13.30;97.20
2653;DHT22;1336;48.692;9.144;2022-09-29T09:53:35;13.30;97.20
2653;DHT22;1336;48.692;9.144;2022-09-29T09:54:30;13.30;97.20
2653;DHT22;1336;48.692;9.144;2022-09-29T09:55:26;13.30;97.20
2653;DHT22;1336;48.692;9.144;2022-09-29T09:56:25;13.30;97.20
2653;DHT22;1336;48.692;9.144;2022-09-29T09:57:54;13.40;97.20
2653;DHT22;1336;48.692;9.144;2022-09-29T09:59:10;13.40;97.20
2653;DHT22;1336;48.692;9.144;2022-09-29T10:00:07;13.50;97.20
2653;DHT22;1336;48.692;9.144;2022-09-29T10:01:02;13.50;97.20
2653;DHT22;1336;48.692;9.144;2022-09-29T10:01:54;13.50;97.20
2653;DHT22;1336;48.692;9.144;2022-09-29T10:02:46;13.50;97.20
2653;DHT22;1336;48.692;9.144;2022-09-29T10:03:39;13.50;97.20
2653;DHT22;1336;48.692;9.144;2022-09-29T10:04:31;13.50;97.20
2653;DHT22;1336;48.692;9.144;2022-09-29T10:05:28;13.60;97.20
2653;DHT22;1336;48.692;9.144;2022-09-29T10:06:21;13.60;97.20
2653;DHT22;1336;48.692;9.144;2022-09-29T10:07:12;13.60;97.20
2653;DHT22;1336;48.692;9.144;2022-09-29T10:08:05;13.70;97.20
2653;DHT22;1336;48.692;9.144;2022-09-29T10:08:57;13.70;97.20
2653;DHT22;1336;48.692;9.144;2022-09-29T10:09:48;13.70;97.20
2653;DHT22;1336;48.692;9.144;2022-09-29T10:10:42;13.80;97.20
2653;DHT22;1336;48.692;9.144;2022-09-29T10:11:33;13.80;97.20
2653;DHT22;1336;48.692;9.144;2022-09-29T10:12:24;13.80;97.20
2653;DHT22;1336;48.692;9.144;2022-09-29T10:13:16;13.80;97.20
2653;DHT22;1336;48.692;9.144;2022-09-29T10:14:12;13.80;97.20
2653;DHT22;1336;48.692;9.144;2022-09-29T10:15:14;13.80;97.20
2653;DHT22;1336;48.692;9.144;2022-09-29T10:16:12;13.90;97.20
2653;DHT22;1336;48.692;9.144;2022-09-29T10:17:07;13.90;97.20
2653;DHT22;1336;48.692;9.144;2022-09-29T10:18:05;13.90;97.20
2653;DHT22;1336;48.692;9.144;2022-09-29T10:18:57;14.00;97.20
2653;DHT22;1336;48.692;9.144;2022-09-29T10:19:56;14.00;97.20
2653;DHT22;1336;48.692;9.144;2022-09-29T10:20:48;14.00;97.20
2653;DHT22;1336;48.692;9.144;2022-09-29T10:21:41;14.00;97.20
2653;DHT22;1336;48.692;9.144;2022-09-29T10:22:34;14.10;97.20
2653;DHT22;1336;48.692;9.144;2022-09-29T10:23:27;14.10;97.20
2653;DHT22;1336;48.692;9.144;2022-09-29T10:24:23;14.10;97.20
2653;DHT22;1336;48.692;9.144;2022-09-29T10:25:18;14.20;97.20
2653;DHT22;1336;48.692;9.144;2022-09-29T10:26:13;14.20;97.20
2653;DHT22;1336;48.692;9.144;2022-09-29T10:27:06;14.20;97.20
2653;DHT22;1336;48.692;9.144;2022-09-29T10:27:57;14.20;97.20
2653;DHT22;1336;48.692;9.144;2022-09-29T10:28:51;14.20;97.20
2653;DHT22;1336;48.692;9.144;2022-09-29T10:29:44;14.20;97.20
2653;DHT22;1336;48.692;9.144;2022-09-29T10:30:38;14.10;97.20
2653;DHT22;1336;48.692;9.144;2022-09-29T10:31:31;14.10;97.20
2653;DHT22;1336;48.692;9.144;2022-09-29T10:32:28;14.10;97.20
2653;DHT22;1336;48.692;9.144;2022-09-29T10:33:25;14.10;97.20
2653;DHT22;1336;48.692;9.144;2022-09-29T10:34:21;14.10;97.20
2653;DHT22;1336;48.692;9.144;2022-09-29T10:35:21;14.10;97.20
2653;DHT22;1336;48.692;9.144;2022-09-29T10:36:13;14.10;97.20
2653;DHT22;1336;48.692;9.144;2022-09-29T10:37:15;14.10;97.20
2653;DHT22;1336;48.692;9.144;2022-09-29T10:38:17;14.10;97.20
2653;DHT22;1336;48.692;9.144;2022-09-29T10:39:29;14.10;97.20
2653;DHT22;1336;48.692;9.144;2022-09-29T10:40:22;14.10;97.20
2653;DHT22;1336;48.692;9.144;2022-09-29T10:41:15;14.10;97.20
2653;DHT22;1336;48.692;9.144;2022-09-29T10:42:21;14.10;97.20
2653;DHT22;1336;48.692;9.144;2022-09-29T10:43:22;14.10;97.20
2653;DHT22;1336;48.692;9.144;2022-09-29T10:44:19;14.10;97.20
2653;DHT22;1336;48.692;9.144;2022-09-29T10:45:15;14.10;97.20
2653;DHT22;1336;48.692;9.144;2022-09-29T10:46:33;14.10;97.20
2653;DHT22;1336;48.692;9.144;2022-09-29T10:47:25;14.20;97.20
2653;DHT22;1336;48.692;9.144;2022-09-29T10:48:18;14.10;97.20
2653;DHT22;1336;48.692;9.144;2022-09-29T10:49:12;14.10;97.20
2653;DHT22;1336;48.692;9.144;2022-09-29T10:50:12;14.10;97.20
2653;DHT22;1336;48.692;9.144;2022-09-29T10:51:04;14.10;97.20
2653;DHT22;1336;48.692;9.144;2022-09-29T10:51:59;14.10;97.20
2653;DHT22;1336;48.692;9.144;2022-09-29T10:52:53;14.10;97.20
2653;DHT22;1336;48.692;9.144;2022-09-29T10:53:45;14.10;97.20